sensor_id;sensor_type;location;lat;lon;timestamp;P1;durP1;ratioP1;P2;durP2;ratioP2
2305;SDS011;1161;51.922;8.896;2023-05-16T00:00:56;24.40;;;14.50;;
2305;SDS011;1161;51.922;8.896;2023-05-16T00:03:23;38.30;;;16.43;;
2305;SDS011;1161;51.922;8.896;2023-05-16T00:05:51;33.57;;;17.47;;
2305;SDS011;1161;51.922;8.896;2023-05-16T00:08:17;36.23;;;16.63;;
2305;SDS011;1161;51.922;8.896;2023-05-16T00:10:44;30.60;;;16.70;;
2305;SDS011;1161;51.922;8.896;2023-05-16T00:13:11;35.83;;;18.40;;
2305;SDS011;1161;51.922;8.896;2023-05-16T00:15:40;33.53;;;17.63;;
2305;SDS011;1161;51.922;8.896;2023-05-16T00:18:08;30.13;;;16.53;;
2305;SDS011;1161;51.922;8.896;2023-05-16T00:20:38;33.20;;;16.50;;
2305;SDS011;1161;51.922;8.896;2023-05-16T00:23:05;31.70;;;17.70;;
2305;SDS011;1161;51.922;8.896;2023-05-16T00:25:32;37.20;;;16.17;;
2305;SDS011;1161;51.922;8.896;2023-05-16T00:27:58;35.97;;;15.73;;
2305;SDS011;1161;51.922;8.896;2023-05-16T00:30:25;26.70;;;15.37;;
2305;SDS011;1161;51.922;8.896;2023-05-16T00:32:53;29.33;;;14.60;;
2305;SDS011;1161;51.922;8.896;2023-05-16T00:35:20;25.07;;;15.10;;
2305;SDS011;1161;51.922;8.896;2023-05-16T00:37:47;34.87;;;14.63;;
2305;SDS011;1161;51.922;8.896;2023-05-16T00:40:13;22.00;;;12.03;;
2305;SDS011;1161;51.922;8.896;2023-05-16T00:42:43;24.53;;;12.90;;
2305;SDS011;1161;51.922;8.896;2023-05-16T00:45:10;30.50;;;15.30;;
2305;SDS011;1161;51.922;8.896;2023-05-16T00:47:37;24.20;;;13.77;;
2305;SDS011;1161;51.922;8.896;2023-05-16T00:50:05;30.13;;;14.83;;
2305;SDS011;1161;51.922;8.896;2023-05-16T00:52:32;21.73;;;13.03;;
2305;SDS011;1161;51.922;8.896;2023-05-16T00:54:59;25.90;;;12.43;;
2305;SDS011;1161;51.922;8.896;2023-05-16T00:57:26;27.20;;;14.57;;
2305;SDS011;1161;51.922;8.896;2023-05-16T00:59:53;26.90;;;12.80;;
2305;SDS011;1161;51.922;8.896;2023-05-16T01:02:19;27.13;;;12.90;;
2305;SDS011;1161;51.922;8.896;2023-05-16T01:04:46;26.77;;;13.53;;
2305;SDS011;1161;51.922;8.896;2023-05-16T01:07:15;18.20;;;12.03;;
2305;SDS011;1161;51.922;8.896;2023-05-16T01:09:42;19.30;;;11.23;;
2305;SDS011;1161;51.922;8.896;2023-05-16T01:12:10;25.53;;;11.87;;
2305;SDS011;1161;51.922;8.896;2023-05-16T01:14:43;39.70;;;11.63;;
2305;SDS011;1161;51.922;8.896;2023-05-16T01:17:16;27.47;;;10.40;;
2305;SDS011;1161;51.922;8.896;2023-05-16T01:19:50;23.43;;;12.20;;
2305;SDS011;1161;51.922;8.896;2023-05-16T01:22:28;20.07;;;11.60;;
2305;SDS011;1161;51.922;8.896;2023-05-16T01:25:01;20.40;;;12.03;;
2305;SDS011;1161;51.922;8.896;2023-05-16T01:27:32;18.23;;;10.53;;
2305;SDS011;1161;51.922;8.896;2023-05-16T01:30:00;19.20;;;10.37;;
2305;SDS011;1161;51.922;8.896;2023-05-16T01:32:27;11.27;;;8.33;;
2305;SDS011;1161;51.922;8.896;2023-05-16T01:34:53;17.27;;;8.97;;
2305;SDS011;1161;51.922;8.896;2023-05-16T01:37:22;15.47;;;8.33;;
2305;SDS011;1161;51.922;8.896;2023-05-16T01:39:54;12.63;;;9.00;;
2305;SDS011;1161;51.922;8.896;2023-05-16T01:42:23;17.07;;;9.23;;
2305;SDS011;1161;51.922;8.896;2023-05-16T01:44:55;13.33;;;8.20;;
2305;SDS011;1161;51.922;8.896;2023-05-16T01:47:25;17.53;;;9.60;;
2305;SDS011;1161;51.922;8.896;2023-05-16T01:49:54;13.63;;;7.53;;
2305;SDS011;1161;51.922;8.896;2023-05-16T01:52:25;22.87;;;9.90;;
2305;SDS011;1161;51.922;8.896;2023-05-16T01:54:53;20.10;;;9.40;;
2305;SDS011;1161;51.922;8.896;2023-05-16T01:57:22;17.73;;;9.00;;
2305;SDS011;1161;51.922;8.896;2023-05-16T01:59:50;23.47;;;11.60;;
2305;SDS011;1161;51.922;8.896;2023-05-16T02:02:18;21.07;;;8.53;;
2305;SDS011;1161;51.922;8.896;2023-05-16T02:04:45;15.23;;;8.07;;
2305;SDS011;1161;51.922;8.896;2023-05-16T02:07:11;17.90;;;9.53;;
2305;SDS011;1161;51.922;8.896;2023-05-16T02:09:39;14.03;;;9.17;;
2305;SDS011;1161;51.922;8.896;2023-05-16T02:12:06;11.20;;;8.07;;
2305;SDS011;1161;51.922;8.896;2023-05-16T02:14:33;16.00;;;8.43;;
2305;SDS011;1161;51.922;8.896;2023-05-16T02:17:00;13.63;;;8.50;;
2305;SDS011;1161;51.922;8.896;2023-05-16T02:19:27;19.33;;;8.67;;
2305;SDS011;1161;51.922;8.896;2023-05-16T02:21:54;10.07;;;7.80;;
2305;SDS011;1161;51.922;8.896;2023-05-16T02:24:21;12.60;;;8.40;;
2305;SDS011;1161;51.922;8.896;2023-05-16T02:26:47;16.67;;;7.87;;
2305;SDS011;1161;51.922;8.896;2023-05-16T02:29:14;15.07;;;6.63;;
2305;SDS011;1161;51.922;8.896;2023-05-16T02:31:41;12.80;;;8.80;;
2305;SDS011;1161;51.922;8.896;2023-05-16T02:34:07;24.43;;;7.40;;
2305;SDS011;1161;51.922;8.896;2023-05-16T02:36:36;14.10;;;8.47;;
2305;SDS011;1161;51.922;8.896;2023-05-16T02:39:03;12.90;;;8.37;;
2305;SDS011;1161;51.922;8.896;2023-05-16T02:41:29;10.03;;;7.20;;
2305;SDS011;1161;51.922;8.896;2023-05-16T02:43:57;8.10;;;7.00;;
2305;SDS011;1161;51.922;8.896;2023-05-16T02:46:24;11.20;;;7.80;;
2305;SDS011;1161;51.922;8.896;2023-05-16T02:48:52;13.93;;;6.90;;
2305;SDS011;1161;51.922;8.896;2023-05-16T02:51:20;12.00;;;7.17;;
2305;SDS011;1161;51.922;8.896;2023-05-16T02:53:48;9.23;;;6.07;;
2305;SDS011;1161;51.922;8.896;2023-05-16T02:56:15;11.37;;;6.40;;
2305;SDS011;1161;51.922;8.896;2023-05-16T02:58:42;8.10;;;5.57;;
2305;SDS011;1161;51.922;8.896;2023-05-16T03:01:10;11.33;;;5.50;;
2305;SDS011;1161;51.922;8.896;2023-05-16T03:03:36;9.03;;;5.80;;
2305;SDS011;1161;51.922;8.896;2023-05-16T03:06:03;11.43;;;5.63;;
2305;SDS011;1161;51.922;8.896;2023-05-16T03:08:32;9.03;;;4.40;;
2305;SDS011;1161;51.922;8.896;2023-05-16T03:11:00;12.10;;;4.47;;
2305;SDS011;1161;51.922;8.896;2023-05-16T03:13:28;24.47;;;5.23;;
2305;SDS011;1161;51.922;8.896;2023-05-16T03:15:57;11.33;;;6.03;;
2305;SDS011;1161;51.922;8.896;2023-05-16T03:18:24;6.43;;;5.57;;
2305;SDS011;1161;51.922;8.896;2023-05-16T03:20:51;9.60;;;6.10;;
2305;SDS011;1161;51.922;8.896;2023-05-16T03:23:18;10.53;;;4.73;;
2305;SDS011;1161;51.922;8.896;2023-05-16T03:25:46;10.83;;;5.63;;
2305;SDS011;1161;51.922;8.896;2023-05-16T03:28:15;7.90;;;5.33;;
2305;SDS011;1161;51.922;8.896;2023-05-16T03:30:42;17.00;;;6.57;;
2305;SDS011;1161;51.922;8.896;2023-05-16T03:33:09;20.20;;;5.50;;
2305;SDS011;1161;51.922;8.896;2023-05-16T03:35:38;12.87;;;5.67;;
2305;SDS011;1161;51.922;8.896;2023-05-16T03:38:05;10.37;;;5.10;;
2305;SDS011;1161;51.922;8.896;2023-05-16T03:40:32;9.63;;;4.90;;
2305;SDS011;1161;51.922;8.896;2023-05-16T03:42:59;14.33;;;5.43;;
2305;SDS011;1161;51.922;8.896;2023-05-16T03:45:28;10.70;;;5.80;;
2305;SDS011;1161;51.922;8.896;2023-05-16T03:47:56;8.73;;;6.10;;
2305;SDS011;1161;51.922;8.896;2023-05-16T03:50:23;13.80;;;5.83;;
2305;SDS011;1161;51.922;8.896;2023-05-16T03:52:50;11.73;;;5.70;;
2305;SDS011;1161;51.922;8.896;2023-05-16T03:55:18;20.27;;;5.70;;
2305;SDS011;1161;51.922;8.896;2023-05-16T03:57:45;11.37;;;5.40;;
2305;SDS011;1161;51.922;8.896;2023-05-16T04:00:14;17.00;;;6.30;;
2305;SDS011;1161;51.922;8.896;2023-05-16T04:02:43;14.53;;;6.33;;
2305;SDS011;1161;51.922;8.896;2023-05-16T04:05:10;10.07;;;6.60;;
2305;SDS011;1161;51.922;8.896;2023-05-16T04:07:38;7.07;;;5.00;;
2305;SDS011;1161;51.922;8.896;2023-05-16T04:10:05;7.30;;;5.17;;
2305;SDS011;1161;51.922;8.896;2023-05-16T04:12:32;18.03;;;5.80;;
2305;SDS011;1161;51.922;8.896;2023-05-16T04:15:00;24.97;;;5.50;;
2305;SDS011;1161;51.922;8.896;2023-05-16T04:17:27;10.10;;;5.10;;
2305;SDS011;1161;51.922;8.896;2023-05-16T04:19:55;18.20;;;4.97;;
2305;SDS011;1161;51.922;8.896;2023-05-16T04:22:22;8.60;;;5.00;;
2305;SDS011;1161;51.922;8.896;2023-05-16T04:24:49;13.17;;;5.20;;
2305;SDS011;1161;51.922;8.896;2023-05-16T04:27:16;12.83;;;4.70;;
2305;SDS011;1161;51.922;8.896;2023-05-16T04:29:43;16.43;;;4.80;;
2305;SDS011;1161;51.922;8.896;2023-05-16T04:32:10;16.63;;;4.77;;
2305;SDS011;1161;51.922;8.896;2023-05-16T04:34:37;30.10;;;5.00;;
2305;SDS011;1161;51.922;8.896;2023-05-16T04:37:06;10.80;;;6.33;;
2305;SDS011;1161;51.922;8.896;2023-05-16T04:39:36;12.90;;;5.47;;
2305;SDS011;1161;51.922;8.896;2023-05-16T04:42:03;19.00;;;4.30;;
2305;SDS011;1161;51.922;8.896;2023-05-16T04:44:31;22.37;;;6.83;;
2305;SDS011;1161;51.922;8.896;2023-05-16T04:46:58;11.83;;;4.30;;
2305;SDS011;1161;51.922;8.896;2023-05-16T04:49:25;11.33;;;5.00;;
2305;SDS011;1161;51.922;8.896;2023-05-16T04:51:53;15.60;;;5.10;;
2305;SDS011;1161;51.922;8.896;2023-05-16T04:54:24;13.67;;;4.77;;
2305;SDS011;1161;51.922;8.896;2023-05-16T04:56:51;17.30;;;4.80;;
2305;SDS011;1161;51.922;8.896;2023-05-16T04:59:20;12.03;;;5.23;;
2305;SDS011;1161;51.922;8.896;2023-05-16T05:01:47;15.20;;;5.40;;
2305;SDS011;1161;51.922;8.896;2023-05-16T05:04:16;19.13;;;4.80;;
2305;SDS011;1161;51.922;8.896;2023-05-16T05:06:43;17.90;;;4.87;;
2305;SDS011;1161;51.922;8.896;2023-05-16T05:09:14;11.73;;;4.70;;
2305;SDS011;1161;51.922;8.896;2023-05-16T05:11:43;16.40;;;5.13;;
2305;SDS011;1161;51.922;8.896;2023-05-16T05:14:12;10.30;;;5.60;;
2305;SDS011;1161;51.922;8.896;2023-05-16T05:16:41;27.10;;;6.37;;
2305;SDS011;1161;51.922;8.896;2023-05-16T05:19:08;10.00;;;4.33;;
2305;SDS011;1161;51.922;8.896;2023-05-16T05:21:35;14.33;;;5.17;;
2305;SDS011;1161;51.922;8.896;2023-05-16T05:24:02;16.27;;;5.63;;
2305;SDS011;1161;51.922;8.896;2023-05-16T05:26:29;17.50;;;4.20;;
2305;SDS011;1161;51.922;8.896;2023-05-16T05:28:58;25.03;;;4.07;;
2305;SDS011;1161;51.922;8.896;2023-05-16T05:31:25;14.00;;;3.70;;
2305;SDS011;1161;51.922;8.896;2023-05-16T05:33:52;5.37;;;4.80;;
2305;SDS011;1161;51.922;8.896;2023-05-16T05:36:19;14.83;;;4.93;;
2305;SDS011;1161;51.922;8.896;2023-05-16T05:38:46;9.37;;;3.83;;
2305;SDS011;1161;51.922;8.896;2023-05-16T05:41:13;31.90;;;4.30;;
2305;SDS011;1161;51.922;8.896;2023-05-16T05:43:40;15.17;;;4.43;;
2305;SDS011;1161;51.922;8.896;2023-05-16T05:46:08;13.13;;;4.10;;
2305;SDS011;1161;51.922;8.896;2023-05-16T05:48:37;17.70;;;4.70;;
2305;SDS011;1161;51.922;8.896;2023-05-16T05:51:03;12.43;;;4.80;;
2305;SDS011;1161;51.922;8.896;2023-05-16T05:53:31;12.80;;;3.57;;
2305;SDS011;1161;51.922;8.896;2023-05-16T05:55:58;14.03;;;3.60;;
2305;SDS011;1161;51.922;8.896;2023-05-16T05:58:26;12.67;;;2.93;;
2305;SDS011;1161;51.922;8.896;2023-05-16T06:01:14;10.30;;;3.47;;
2305;SDS011;1161;51.922;8.896;2023-05-16T06:03:41;28.87;;;4.50;;
2305;SDS011;1161;51.922;8.896;2023-05-16T06:06:08;16.60;;;3.90;;
2305;SDS011;1161;51.922;8.896;2023-05-16T06:08:38;11.47;;;4.00;;
2305;SDS011;1161;51.922;8.896;2023-05-16T06:11:05;24.47;;;4.70;;
2305;SDS011;1161;51.922;8.896;2023-05-16T06:13:32;9.93;;;3.20;;
2305;SDS011;1161;51.922;8.896;2023-05-16T06:16:00;19.03;;;3.73;;
2305;SDS011;1161;51.922;8.896;2023-05-16T06:18:28;8.33;;;3.40;;
2305;SDS011;1161;51.922;8.896;2023-05-16T06:20:55;21.63;;;3.10;;
2305;SDS011;1161;51.922;8.896;2023-05-16T06:23:22;12.90;;;3.73;;
2305;SDS011;1161;51.922;8.896;2023-05-16T06:25:49;9.57;;;4.20;;
2305;SDS011;1161;51.922;8.896;2023-05-16T06:28:17;16.00;;;6.10;;
2305;SDS011;1161;51.922;8.896;2023-05-16T06:30:44;14.40;;;3.80;;
2305;SDS011;1161;51.922;8.896;2023-05-16T06:33:12;14.47;;;4.30;;
2305;SDS011;1161;51.922;8.896;2023-05-16T06:35:42;12.13;;;3.40;;
2305;SDS011;1161;51.922;8.896;2023-05-16T06:38:09;14.33;;;4.20;;
2305;SDS011;1161;51.922;8.896;2023-05-16T06:40:35;6.53;;;3.47;;
2305;SDS011;1161;51.922;8.896;2023-05-16T06:43:02;16.47;;;3.57;;
2305;SDS011;1161;51.922;8.896;2023-05-16T06:45:30;11.13;;;3.60;;
2305;SDS011;1161;51.922;8.896;2023-05-16T06:47:57;11.10;;;3.63;;
2305;SDS011;1161;51.922;8.896;2023-05-16T06:50:23;25.43;;;5.90;;
2305;SDS011;1161;51.922;8.896;2023-05-16T06:52:51;9.83;;;5.70;;
2305;SDS011;1161;51.922;8.896;2023-05-16T06:55:18;9.23;;;3.87;;
2305;SDS011;1161;51.922;8.896;2023-05-16T06:57:45;22.50;;;3.70;;
2305;SDS011;1161;51.922;8.896;2023-05-16T07:00:12;13.43;;;4.30;;
2305;SDS011;1161;51.922;8.896;2023-05-16T07:02:39;10.07;;;2.80;;
2305;SDS011;1161;51.922;8.896;2023-05-16T07:05:06;11.13;;;3.00;;
2305;SDS011;1161;51.922;8.896;2023-05-16T07:07:33;8.13;;;3.60;;
2305;SDS011;1161;51.922;8.896;2023-05-16T07:10:01;12.93;;;4.23;;
2305;SDS011;1161;51.922;8.896;2023-05-16T07:12:28;22.17;;;2.80;;
2305;SDS011;1161;51.922;8.896;2023-05-16T07:14:55;17.57;;;3.23;;
2305;SDS011;1161;51.922;8.896;2023-05-16T07:17:22;18.80;;;4.83;;
2305;SDS011;1161;51.922;8.896;2023-05-16T07:19:48;11.13;;;3.50;;
2305;SDS011;1161;51.922;8.896;2023-05-16T07:22:15;16.17;;;5.70;;
2305;SDS011;1161;51.922;8.896;2023-05-16T07:24:42;26.17;;;3.10;;
2305;SDS011;1161;51.922;8.896;2023-05-16T07:27:10;10.30;;;3.13;;
2305;SDS011;1161;51.922;8.896;2023-05-16T07:29:36;14.00;;;2.67;;
2305;SDS011;1161;51.922;8.896;2023-05-16T07:32:03;23.07;;;4.67;;
2305;SDS011;1161;51.922;8.896;2023-05-16T07:34:31;20.63;;;3.50;;
2305;SDS011;1161;51.922;8.896;2023-05-16T07:36:57;12.53;;;3.43;;
2305;SDS011;1161;51.922;8.896;2023-05-16T07:39:24;12.40;;;4.13;;
2305;SDS011;1161;51.922;8.896;2023-05-16T07:41:50;24.43;;;3.57;;
2305;SDS011;1161;51.922;8.896;2023-05-16T07:44:18;15.97;;;4.30;;
2305;SDS011;1161;51.922;8.896;2023-05-16T07:46:45;17.17;;;2.93;;
2305;SDS011;1161;51.922;8.896;2023-05-16T07:49:12;11.33;;;2.10;;
2305;SDS011;1161;51.922;8.896;2023-05-16T07:51:39;8.43;;;2.80;;
2305;SDS011;1161;51.922;8.896;2023-05-16T07:54:06;7.73;;;2.23;;
2305;SDS011;1161;51.922;8.896;2023-05-16T07:56:32;13.17;;;3.20;;
2305;SDS011;1161;51.922;8.896;2023-05-16T07:58:59;8.93;;;2.67;;
2305;SDS011;1161;51.922;8.896;2023-05-16T08:01:27;8.60;;;2.43;;
2305;SDS011;1161;51.922;8.896;2023-05-16T08:03:54;18.17;;;3.60;;
2305;SDS011;1161;51.922;8.896;2023-05-16T08:06:21;11.13;;;3.00;;
2305;SDS011;1161;51.922;8.896;2023-05-16T08:08:52;6.20;;;2.90;;
2305;SDS011;1161;51.922;8.896;2023-05-16T08:11:19;10.27;;;2.53;;
2305;SDS011;1161;51.922;8.896;2023-05-16T08:13:46;7.67;;;2.93;;
2305;SDS011;1161;51.922;8.896;2023-05-16T08:16:13;2.93;;;2.37;;
2305;SDS011;1161;51.922;8.896;2023-05-16T08:18:41;5.93;;;2.47;;
2305;SDS011;1161;51.922;8.896;2023-05-16T08:21:07;4.80;;;2.63;;
2305;SDS011;1161;51.922;8.896;2023-05-16T08:23:34;17.77;;;3.60;;
2305;SDS011;1161;51.922;8.896;2023-05-16T08:26:01;11.40;;;3.80;;
2305;SDS011;1161;51.922;8.896;2023-05-16T08:28:28;15.20;;;2.13;;
2305;SDS011;1161;51.922;8.896;2023-05-16T08:30:55;14.87;;;2.73;;
2305;SDS011;1161;51.922;8.896;2023-05-16T08:33:21;3.80;;;1.93;;
2305;SDS011;1161;51.922;8.896;2023-05-16T08:35:50;8.70;;;2.20;;
2305;SDS011;1161;51.922;8.896;2023-05-16T08:38:17;10.40;;;2.10;;
2305;SDS011;1161;51.922;8.896;2023-05-16T08:40:44;6.30;;;1.47;;
2305;SDS011;1161;51.922;8.896;2023-05-16T08:43:11;10.83;;;2.40;;
2305;SDS011;1161;51.922;8.896;2023-05-16T08:45:38;10.07;;;2.37;;
2305;SDS011;1161;51.922;8.896;2023-05-16T08:48:05;8.03;;;2.90;;
2305;SDS011;1161;51.922;8.896;2023-05-16T08:50:33;6.33;;;2.70;;
2305;SDS011;1161;51.922;8.896;2023-05-16T08:53:03;7.73;;;2.40;;
2305;SDS011;1161;51.922;8.896;2023-05-16T08:55:32;18.63;;;2.63;;
2305;SDS011;1161;51.922;8.896;2023-05-16T08:58:00;9.20;;;2.80;;
2305;SDS011;1161;51.922;8.896;2023-05-16T09:00:27;5.00;;;2.23;;
2305;SDS011;1161;51.922;8.896;2023-05-16T09:02:53;9.00;;;3.50;;
2305;SDS011;1161;51.922;8.896;2023-05-16T09:05:20;4.63;;;2.57;;
2305;SDS011;1161;51.922;8.896;2023-05-16T09:07:48;5.37;;;1.90;;
2305;SDS011;1161;51.922;8.896;2023-05-16T09:10:16;6.30;;;2.43;;
2305;SDS011;1161;51.922;8.896;2023-05-16T09:12:43;4.93;;;1.93;;
2305;SDS011;1161;51.922;8.896;2023-05-16T09:15:10;11.97;;;2.30;;
2305;SDS011;1161;51.922;8.896;2023-05-16T09:17:36;7.53;;;1.27;;
2305;SDS011;1161;51.922;8.896;2023-05-16T09:20:07;12.23;;;2.00;;
2305;SDS011;1161;51.922;8.896;2023-05-16T09:22:35;15.37;;;2.30;;
2305;SDS011;1161;51.922;8.896;2023-05-16T09:25:02;24.77;;;2.93;;
2305;SDS011;1161;51.922;8.896;2023-05-16T09:27:30;3.67;;;2.10;;
2305;SDS011;1161;51.922;8.896;2023-05-16T09:29:57;5.30;;;2.10;;
2305;SDS011;1161;51.922;8.896;2023-05-16T09:32:24;7.70;;;2.13;;
2305;SDS011;1161;51.922;8.896;2023-05-16T09:34:51;16.10;;;3.40;;
2305;SDS011;1161;51.922;8.896;2023-05-16T09:37:18;6.17;;;2.20;;
2305;SDS011;1161;51.922;8.896;2023-05-16T09:39:46;5.03;;;2.07;;
2305;SDS011;1161;51.922;8.896;2023-05-16T09:42:13;4.63;;;1.43;;
2305;SDS011;1161;51.922;8.896;2023-05-16T09:44:41;4.07;;;2.10;;
2305;SDS011;1161;51.922;8.896;2023-05-16T09:47:13;6.50;;;2.80;;
2305;SDS011;1161;51.922;8.896;2023-05-16T09:49:40;5.53;;;1.90;;
2305;SDS011;1161;51.922;8.896;2023-05-16T09:52:07;3.70;;;2.23;;
2305;SDS011;1161;51.922;8.896;2023-05-16T09:54:33;9.90;;;2.53;;
2305;SDS011;1161;51.922;8.896;2023-05-16T09:57:00;6.60;;;1.70;;
2305;SDS011;1161;51.922;8.896;2023-05-16T09:59:27;2.33;;;2.07;;
2305;SDS011;1161;51.922;8.896;2023-05-16T10:01:57;12.30;;;2.60;;
2305;SDS011;1161;51.922;8.896;2023-05-16T10:04:24;4.73;;;1.90;;
2305;SDS011;1161;51.922;8.896;2023-05-16T10:06:51;10.30;;;2.73;;
2305;SDS011;1161;51.922;8.896;2023-05-16T10:09:21;8.50;;;2.73;;
2305;SDS011;1161;51.922;8.896;2023-05-16T10:11:48;5.77;;;2.17;;
2305;SDS011;1161;51.922;8.896;2023-05-16T10:14:15;5.80;;;2.60;;
2305;SDS011;1161;51.922;8.896;2023-05-16T10:16:42;5.80;;;1.53;;
2305;SDS011;1161;51.922;8.896;2023-05-16T10:19:13;5.50;;;2.03;;
2305;SDS011;1161;51.922;8.896;2023-05-16T10:21:41;3.40;;;2.03;;
2305;SDS011;1161;51.922;8.896;2023-05-16T10:24:11;2.07;;;1.83;;
2305;SDS011;1161;51.922;8.896;2023-05-16T10:26:40;1.43;;;1.30;;
2305;SDS011;1161;51.922;8.896;2023-05-16T10:29:06;1.80;;;1.67;;
2305;SDS011;1161;51.922;8.896;2023-05-16T10:31:33;9.10;;;1.73;;
2305;SDS011;1161;51.922;8.896;2023-05-16T10:34:00;10.50;;;1.93;;
2305;SDS011;1161;51.922;8.896;2023-05-16T10:36:28;2.70;;;1.87;;
2305;SDS011;1161;51.922;8.896;2023-05-16T10:38:55;3.50;;;1.40;;
2305;SDS011;1161;51.922;8.896;2023-05-16T10:41:22;10.37;;;1.57;;
2305;SDS011;1161;51.922;8.896;2023-05-16T10:43:54;3.73;;;1.20;;
2305;SDS011;1161;51.922;8.896;2023-05-16T10:46:22;4.53;;;1.40;;
2305;SDS011;1161;51.922;8.896;2023-05-16T10:48:49;8.63;;;1.87;;
2305;SDS011;1161;51.922;8.896;2023-05-16T10:51:36;3.40;;;1.50;;
2305;SDS011;1161;51.922;8.896;2023-05-16T10:54:03;4.47;;;1.33;;
2305;SDS011;1161;51.922;8.896;2023-05-16T10:56:31;3.83;;;1.93;;
2305;SDS011;1161;51.922;8.896;2023-05-16T10:58:59;18.93;;;2.80;;
2305;SDS011;1161;51.922;8.896;2023-05-16T11:01:26;5.17;;;1.57;;
2305;SDS011;1161;51.922;8.896;2023-05-16T11:04:00;5.77;;;1.87;;
2305;SDS011;1161;51.922;8.896;2023-05-16T11:06:43;4.93;;;1.90;;
2305;SDS011;1161;51.922;8.896;2023-05-16T11:09:19;11.33;;;2.97;;
2305;SDS011;1161;51.922;8.896;2023-05-16T11:11:53;8.90;;;1.87;;
2305;SDS011;1161;51.922;8.896;2023-05-16T11:14:27;2.20;;;1.10;;
2305;SDS011;1161;51.922;8.896;2023-05-16T11:16:59;3.50;;;2.00;;
2305;SDS011;1161;51.922;8.896;2023-05-16T11:19:28;6.60;;;1.80;;
2305;SDS011;1161;51.922;8.896;2023-05-16T11:22:10;4.37;;;2.13;;
2305;SDS011;1161;51.922;8.896;2023-05-16T11:24:50;10.00;;;2.10;;
2305;SDS011;1161;51.922;8.896;2023-05-16T11:27:19;7.80;;;1.50;;
2305;SDS011;1161;51.922;8.896;2023-05-16T11:29:47;5.93;;;1.70;;
2305;SDS011;1161;51.922;8.896;2023-05-16T11:32:14;7.90;;;2.60;;
2305;SDS011;1161;51.922;8.896;2023-05-16T11:34:45;9.37;;;1.53;;
2305;SDS011;1161;51.922;8.896;2023-05-16T11:37:13;3.60;;;1.57;;
2305;SDS011;1161;51.922;8.896;2023-05-16T11:39:41;1.40;;;1.30;;
2305;SDS011;1161;51.922;8.896;2023-05-16T11:42:08;4.00;;;1.97;;
2305;SDS011;1161;51.922;8.896;2023-05-16T11:44:35;8.83;;;1.70;;
2305;SDS011;1161;51.922;8.896;2023-05-16T11:47:01;12.77;;;2.07;;
2305;SDS011;1161;51.922;8.896;2023-05-16T11:49:28;4.77;;;1.40;;
2305;SDS011;1161;51.922;8.896;2023-05-16T11:51:55;3.03;;;1.40;;
2305;SDS011;1161;51.922;8.896;2023-05-16T11:54:24;4.77;;;2.77;;
2305;SDS011;1161;51.922;8.896;2023-05-16T11:56:51;3.23;;;1.40;;
2305;SDS011;1161;51.922;8.896;2023-05-16T11:59:17;4.57;;;2.20;;
2305;SDS011;1161;51.922;8.896;2023-05-16T12:01:45;4.27;;;1.83;;
2305;SDS011;1161;51.922;8.896;2023-05-16T12:04:13;8.10;;;2.43;;
2305;SDS011;1161;51.922;8.896;2023-05-16T12:06:41;4.77;;;1.53;;
2305;SDS011;1161;51.922;8.896;2023-05-16T12:09:10;5.53;;;1.90;;
2305;SDS011;1161;51.922;8.896;2023-05-16T12:11:40;6.40;;;2.00;;
2305;SDS011;1161;51.922;8.896;2023-05-16T12:14:08;10.60;;;3.50;;
2305;SDS011;1161;51.922;8.896;2023-05-16T12:16:36;5.03;;;2.60;;
2305;SDS011;1161;51.922;8.896;2023-05-16T12:19:03;5.70;;;2.50;;
2305;SDS011;1161;51.922;8.896;2023-05-16T12:21:31;10.77;;;2.93;;
2305;SDS011;1161;51.922;8.896;2023-05-16T12:23:58;1.83;;;1.73;;
2305;SDS011;1161;51.922;8.896;2023-05-16T12:26:25;2.10;;;1.80;;
2305;SDS011;1161;51.922;8.896;2023-05-16T12:28:57;11.23;;;2.10;;
2305;SDS011;1161;51.922;8.896;2023-05-16T12:31:25;2.10;;;1.53;;
2305;SDS011;1161;51.922;8.896;2023-05-16T12:33:52;6.43;;;2.03;;
2305;SDS011;1161;51.922;8.896;2023-05-16T12:36:19;9.53;;;2.30;;
2305;SDS011;1161;51.922;8.896;2023-05-16T12:38:46;9.30;;;1.67;;
2305;SDS011;1161;51.922;8.896;2023-05-16T12:41:16;4.27;;;1.90;;
2305;SDS011;1161;51.922;8.896;2023-05-16T12:43:43;2.87;;;1.30;;
2305;SDS011;1161;51.922;8.896;2023-05-16T12:46:11;4.10;;;1.40;;
2305;SDS011;1161;51.922;8.896;2023-05-16T12:48:37;3.43;;;1.43;;
2305;SDS011;1161;51.922;8.896;2023-05-16T12:51:09;3.83;;;1.33;;
2305;SDS011;1161;51.922;8.896;2023-05-16T12:53:40;10.77;;;1.70;;
2305;SDS011;1161;51.922;8.896;2023-05-16T12:56:08;5.30;;;1.60;;
2305;SDS011;1161;51.922;8.896;2023-05-16T12:58:35;7.70;;;1.40;;
2305;SDS011;1161;51.922;8.896;2023-05-16T13:01:01;5.40;;;1.77;;
2305;SDS011;1161;51.922;8.896;2023-05-16T13:03:30;7.17;;;1.90;;
2305;SDS011;1161;51.922;8.896;2023-05-16T13:05:57;10.00;;;1.93;;
2305;SDS011;1161;51.922;8.896;2023-05-16T13:08:24;6.43;;;1.87;;
2305;SDS011;1161;51.922;8.896;2023-05-16T13:10:50;2.43;;;1.50;;
2305;SDS011;1161;51.922;8.896;2023-05-16T13:13:17;2.07;;;1.17;;
2305;SDS011;1161;51.922;8.896;2023-05-16T13:15:44;1.60;;;1.30;;
2305;SDS011;1161;51.922;8.896;2023-05-16T13:18:12;4.43;;;1.23;;
2305;SDS011;1161;51.922;8.896;2023-05-16T13:20:40;8.03;;;2.50;;
2305;SDS011;1161;51.922;8.896;2023-05-16T13:23:06;6.80;;;2.00;;
2305;SDS011;1161;51.922;8.896;2023-05-16T13:25:33;4.77;;;1.40;;
2305;SDS011;1161;51.922;8.896;2023-05-16T13:27:59;19.33;;;2.10;;
2305;SDS011;1161;51.922;8.896;2023-05-16T13:30:26;5.20;;;1.77;;
2305;SDS011;1161;51.922;8.896;2023-05-16T13:32:53;3.60;;;1.83;;
2305;SDS011;1161;51.922;8.896;2023-05-16T13:35:19;8.70;;;2.10;;
2305;SDS011;1161;51.922;8.896;2023-05-16T13:37:47;4.27;;;2.20;;
2305;SDS011;1161;51.922;8.896;2023-05-16T13:40:14;4.33;;;2.57;;
2305;SDS011;1161;51.922;8.896;2023-05-16T13:42:41;3.67;;;1.20;;
2305;SDS011;1161;51.922;8.896;2023-05-16T13:45:08;15.20;;;1.67;;
2305;SDS011;1161;51.922;8.896;2023-05-16T13:47:34;4.50;;;1.30;;
2305;SDS011;1161;51.922;8.896;2023-05-16T13:50:01;1.33;;;1.23;;
2305;SDS011;1161;51.922;8.896;2023-05-16T13:52:32;4.53;;;1.67;;
2305;SDS011;1161;51.922;8.896;2023-05-16T13:54:59;6.77;;;1.50;;
2305;SDS011;1161;51.922;8.896;2023-05-16T13:57:26;3.97;;;1.50;;
2305;SDS011;1161;51.922;8.896;2023-05-16T13:59:53;4.43;;;2.70;;
2305;SDS011;1161;51.922;8.896;2023-05-16T14:02:20;1.93;;;1.83;;
2305;SDS011;1161;51.922;8.896;2023-05-16T14:04:50;5.73;;;1.20;;
2305;SDS011;1161;51.922;8.896;2023-05-16T14:07:16;2.10;;;1.10;;
2305;SDS011;1161;51.922;8.896;2023-05-16T14:09:43;2.50;;;1.43;;
2305;SDS011;1161;51.922;8.896;2023-05-16T14:12:11;3.97;;;2.10;;
2305;SDS011;1161;51.922;8.896;2023-05-16T14:14:37;3.23;;;1.47;;
2305;SDS011;1161;51.922;8.896;2023-05-16T14:17:04;6.47;;;1.90;;
2305;SDS011;1161;51.922;8.896;2023-05-16T14:19:30;10.60;;;1.20;;
2305;SDS011;1161;51.922;8.896;2023-05-16T14:21:58;3.80;;;1.40;;
2305;SDS011;1161;51.922;8.896;2023-05-16T14:24:24;7.43;;;1.50;;
2305;SDS011;1161;51.922;8.896;2023-05-16T14:26:51;1.83;;;1.57;;
2305;SDS011;1161;51.922;8.896;2023-05-16T14:29:21;4.20;;;1.37;;
2305;SDS011;1161;51.922;8.896;2023-05-16T14:31:48;2.40;;;1.37;;
2305;SDS011;1161;51.922;8.896;2023-05-16T14:34:15;7.20;;;1.30;;
2305;SDS011;1161;51.922;8.896;2023-05-16T14:36:41;11.10;;;2.10;;
2305;SDS011;1161;51.922;8.896;2023-05-16T14:39:09;4.07;;;1.87;;
2305;SDS011;1161;51.922;8.896;2023-05-16T14:41:36;7.13;;;1.77;;
2305;SDS011;1161;51.922;8.896;2023-05-16T14:44:03;4.97;;;1.53;;
2305;SDS011;1161;51.922;8.896;2023-05-16T14:46:31;7.80;;;1.73;;
2305;SDS011;1161;51.922;8.896;2023-05-16T14:48:57;2.30;;;1.17;;
2305;SDS011;1161;51.922;8.896;2023-05-16T14:51:24;6.43;;;1.50;;
2305;SDS011;1161;51.922;8.896;2023-05-16T14:53:51;5.23;;;1.60;;
2305;SDS011;1161;51.922;8.896;2023-05-16T14:56:18;1.33;;;0.80;;
2305;SDS011;1161;51.922;8.896;2023-05-16T14:58:45;8.93;;;1.50;;
2305;SDS011;1161;51.922;8.896;2023-05-16T15:01:11;5.97;;;1.40;;
2305;SDS011;1161;51.922;8.896;2023-05-16T15:03:40;6.03;;;1.97;;
2305;SDS011;1161;51.922;8.896;2023-05-16T15:06:07;4.27;;;1.33;;
2305;SDS011;1161;51.922;8.896;2023-05-16T15:08:33;4.63;;;1.50;;